sensor_id;sensor_type;location;lat;lon;timestamp;P1;durP1;ratioP1;P2;durP2;ratioP2
10248;SDS011;5169;50.560;9.714;2024-01-07T00:00:05;23.07;;;14.10;;
10248;SDS011;5169;50.560;9.714;2024-01-07T00:02:32;20.33;;;13.87;;
10248;SDS011;5169;50.560;9.714;2024-01-07T00:04:57;22.80;;;15.13;;
10248;SDS011;5169;50.560;9.714;2024-01-07T00:07:23;22.30;;;14.17;;
10248;SDS011;5169;50.560;9.714;2024-01-07T00:09:51;22.97;;;15.40;;
10248;SDS011;5169;50.560;9.714;2024-01-07T00:12:19;23.07;;;14.03;;
10248;SDS011;5169;50.560;9.714;2024-01-07T00:14:44;20.83;;;14.03;;
10248;SDS011;5169;50.560;9.714;2024-01-07T00:17:12;22.40;;;13.90;;
10248;SDS011;5169;50.560;9.714;2024-01-07T00:19:40;20.97;;;13.10;;
10248;SDS011;5169;50.560;9.714;2024-01-07T00:22:08;20.63;;;13.17;;
10248;SDS011;5169;50.560;9.714;2024-01-07T00:24:35;20.70;;;13.37;;
10248;SDS011;5169;50.560;9.714;2024-01-07T00:27:02;20.83;;;12.33;;
10248;SDS011;5169;50.560;9.714;2024-01-07T00:29:30;19.23;;;12.07;;
10248;SDS011;5169;50.560;9.714;2024-01-07T00:32:00;18.60;;;11.90;;
10248;SDS011;5169;50.560;9.714;2024-01-07T00:34:25;19.83;;;11.60;;
10248;SDS011;5169;50.560;9.714;2024-01-07T00:36:51;22.70;;;11.07;;
10248;SDS011;5169;50.560;9.714;2024-01-07T00:39:18;19.40;;;11.10;;
10248;SDS011;5169;50.560;9.714;2024-01-07T00:41:44;20.30;;;11.40;;
10248;SDS011;5169;50.560;9.714;2024-01-07T00:44:10;20.57;;;11.30;;
10248;SDS011;5169;50.560;9.714;2024-01-07T00:46:38;19.57;;;11.37;;
10248;SDS011;5169;50.560;9.714;2024-01-07T00:49:03;18.87;;;10.83;;
10248;SDS011;5169;50.560;9.714;2024-01-07T00:51:29;18.50;;;10.73;;
10248;SDS011;5169;50.560;9.714;2024-01-07T00:53:56;19.17;;;10.67;;
10248;SDS011;5169;50.560;9.714;2024-01-07T00:56:25;18.07;;;11.40;;
10248;SDS011;5169;50.560;9.714;2024-01-07T00:58:51;19.73;;;10.70;;
10248;SDS011;5169;50.560;9.714;2024-01-07T01:01:17;17.77;;;10.70;;
10248;SDS011;5169;50.560;9.714;2024-01-07T01:03:43;18.97;;;10.83;;
10248;SDS011;5169;50.560;9.714;2024-01-07T01:06:08;16.60;;;10.23;;
10248;SDS011;5169;50.560;9.714;2024-01-07T01:08:34;17.60;;;10.37;;
10248;SDS011;5169;50.560;9.714;2024-01-07T01:10:59;17.10;;;10.97;;
10248;SDS011;5169;50.560;9.714;2024-01-07T01:13:25;17.80;;;10.83;;
10248;SDS011;5169;50.560;9.714;2024-01-07T01:15:53;20.20;;;10.47;;
10248;SDS011;5169;50.560;9.714;2024-01-07T01:18:20;17.37;;;10.37;;
10248;SDS011;5169;50.560;9.714;2024-01-07T01:20:46;16.67;;;10.27;;
10248;SDS011;5169;50.560;9.714;2024-01-07T01:23:11;19.53;;;11.13;;
10248;SDS011;5169;50.560;9.714;2024-01-07T01:25:37;17.17;;;10.43;;
10248;SDS011;5169;50.560;9.714;2024-01-07T01:28:04;18.80;;;11.10;;
10248;SDS011;5169;50.560;9.714;2024-01-07T01:30:30;18.60;;;11.33;;
10248;SDS011;5169;50.560;9.714;2024-01-07T01:32:59;19.93;;;12.33;;
10248;SDS011;5169;50.560;9.714;2024-01-07T01:35:24;17.67;;;11.37;;
10248;SDS011;5169;50.560;9.714;2024-01-07T01:37:50;19.27;;;11.73;;
10248;SDS011;5169;50.560;9.714;2024-01-07T01:40:16;19.17;;;11.47;;
10248;SDS011;5169;50.560;9.714;2024-01-07T01:42:45;19.37;;;11.57;;
10248;SDS011;5169;50.560;9.714;2024-01-07T01:45:13;18.80;;;11.30;;
10248;SDS011;5169;50.560;9.714;2024-01-07T01:47:39;20.10;;;11.17;;
10248;SDS011;5169;50.560;9.714;2024-01-07T01:50:06;18.80;;;10.77;;
10248;SDS011;5169;50.560;9.714;2024-01-07T01:52:33;19.77;;;11.43;;
10248;SDS011;5169;50.560;9.714;2024-01-07T01:55:00;17.97;;;10.67;;
10248;SDS011;5169;50.560;9.714;2024-01-07T01:57:28;17.00;;;10.87;;
10248;SDS011;5169;50.560;9.714;2024-01-07T01:59:59;18.33;;;10.87;;
10248;SDS011;5169;50.560;9.714;2024-01-07T02:02:33;19.57;;;11.00;;
10248;SDS011;5169;50.560;9.714;2024-01-07T02:05:02;19.23;;;10.27;;
10248;SDS011;5169;50.560;9.714;2024-01-07T02:07:28;15.30;;;9.40;;
10248;SDS011;5169;50.560;9.714;2024-01-07T02:09:55;16.20;;;10.07;;
10248;SDS011;5169;50.560;9.714;2024-01-07T02:12:21;17.80;;;10.30;;
10248;SDS011;5169;50.560;9.714;2024-01-07T02:14:46;19.93;;;10.40;;
10248;SDS011;5169;50.560;9.714;2024-01-07T02:17:12;16.30;;;10.37;;
10248;SDS011;5169;50.560;9.714;2024-01-07T02:19:37;16.80;;;10.73;;
10248;SDS011;5169;50.560;9.714;2024-01-07T02:22:05;18.93;;;11.03;;
10248;SDS011;5169;50.560;9.714;2024-01-07T02:24:33;18.10;;;10.57;;
10248;SDS011;5169;50.560;9.714;2024-01-07T02:26:59;16.43;;;10.37;;
10248;SDS011;5169;50.560;9.714;2024-01-07T02:29:27;14.50;;;9.10;;
10248;SDS011;5169;50.560;9.714;2024-01-07T02:31:53;15.27;;;8.93;;
10248;SDS011;5169;50.560;9.714;2024-01-07T02:34:19;14.20;;;9.70;;
10248;SDS011;5169;50.560;9.714;2024-01-07T02:36:49;15.40;;;9.40;;
10248;SDS011;5169;50.560;9.714;2024-01-07T02:39:14;14.87;;;9.20;;
10248;SDS011;5169;50.560;9.714;2024-01-07T02:41:43;13.37;;;8.40;;
10248;SDS011;5169;50.560;9.714;2024-01-07T02:44:09;13.93;;;8.83;;
10248;SDS011;5169;50.560;9.714;2024-01-07T02:46:34;13.90;;;7.67;;
10248;SDS011;5169;50.560;9.714;2024-01-07T02:49:02;12.50;;;7.43;;
10248;SDS011;5169;50.560;9.714;2024-01-07T02:51:28;12.50;;;7.90;;
10248;SDS011;5169;50.560;9.714;2024-01-07T02:53:58;10.47;;;7.30;;
10248;SDS011;5169;50.560;9.714;2024-01-07T02:56:23;13.10;;;8.23;;
10248;SDS011;5169;50.560;9.714;2024-01-07T02:58:49;12.40;;;7.67;;
10248;SDS011;5169;50.560;9.714;2024-01-07T03:01:14;13.63;;;8.13;;
10248;SDS011;5169;50.560;9.714;2024-01-07T03:03:42;13.17;;;8.10;;
10248;SDS011;5169;50.560;9.714;2024-01-07T03:06:08;13.80;;;8.43;;
10248;SDS011;5169;50.560;9.714;2024-01-07T03:08:34;15.30;;;8.93;;
10248;SDS011;5169;50.560;9.714;2024-01-07T03:11:03;14.13;;;7.73;;
10248;SDS011;5169;50.560;9.714;2024-01-07T03:13:30;15.70;;;8.07;;
10248;SDS011;5169;50.560;9.714;2024-01-07T03:15:55;14.53;;;7.43;;
10248;SDS011;5169;50.560;9.714;2024-01-07T03:18:23;14.27;;;8.17;;
10248;SDS011;5169;50.560;9.714;2024-01-07T03:20:49;15.40;;;9.13;;
10248;SDS011;5169;50.560;9.714;2024-01-07T03:23:15;15.50;;;8.20;;
10248;SDS011;5169;50.560;9.714;2024-01-07T03:25:40;13.93;;;7.83;;
10248;SDS011;5169;50.560;9.714;2024-01-07T03:28:06;12.43;;;7.47;;
10248;SDS011;5169;50.560;9.714;2024-01-07T03:30:34;13.17;;;7.63;;
10248;SDS011;5169;50.560;9.714;2024-01-07T03:32:59;14.50;;;7.73;;
10248;SDS011;5169;50.560;9.714;2024-01-07T03:35:25;9.93;;;6.07;;
10248;SDS011;5169;50.560;9.714;2024-01-07T03:37:51;8.97;;;5.70;;
10248;SDS011;5169;50.560;9.714;2024-01-07T03:40:18;12.43;;;6.90;;
10248;SDS011;5169;50.560;9.714;2024-01-07T03:42:44;12.17;;;7.17;;
10248;SDS011;5169;50.560;9.714;2024-01-07T03:45:09;11.43;;;6.97;;
10248;SDS011;5169;50.560;9.714;2024-01-07T03:47:35;12.23;;;7.13;;
10248;SDS011;5169;50.560;9.714;2024-01-07T03:50:01;13.33;;;7.80;;
10248;SDS011;5169;50.560;9.714;2024-01-07T03:52:26;13.43;;;7.33;;
10248;SDS011;5169;50.560;9.714;2024-01-07T03:54:53;11.50;;;7.17;;
10248;SDS011;5169;50.560;9.714;2024-01-07T03:57:19;14.53;;;7.33;;
10248;SDS011;5169;50.560;9.714;2024-01-07T03:59:44;10.13;;;6.63;;
10248;SDS011;5169;50.560;9.714;2024-01-07T04:02:10;7.47;;;5.33;;
10248;SDS011;5169;50.560;9.714;2024-01-07T04:04:36;12.00;;;7.60;;
10248;SDS011;5169;50.560;9.714;2024-01-07T04:07:04;12.37;;;7.13;;
10248;SDS011;5169;50.560;9.714;2024-01-07T04:09:30;13.20;;;7.53;;
10248;SDS011;5169;50.560;9.714;2024-01-07T04:12:00;11.27;;;7.03;;
10248;SDS011;5169;50.560;9.714;2024-01-07T04:14:26;13.60;;;7.60;;
10248;SDS011;5169;50.560;9.714;2024-01-07T04:16:52;12.77;;;7.60;;
10248;SDS011;5169;50.560;9.714;2024-01-07T04:19:18;13.23;;;7.13;;
10248;SDS011;5169;50.560;9.714;2024-01-07T04:21:46;13.10;;;7.10;;
10248;SDS011;5169;50.560;9.714;2024-01-07T04:24:14;11.37;;;7.07;;
10248;SDS011;5169;50.560;9.714;2024-01-07T04:26:40;13.50;;;8.10;;
10248;SDS011;5169;50.560;9.714;2024-01-07T04:29:08;12.93;;;7.40;;
10248;SDS011;5169;50.560;9.714;2024-01-07T04:31:36;15.93;;;7.67;;
10248;SDS011;5169;50.560;9.714;2024-01-07T04:34:01;15.50;;;8.33;;
10248;SDS011;5169;50.560;9.714;2024-01-07T04:36:27;13.93;;;8.50;;
10248;SDS011;5169;50.560;9.714;2024-01-07T04:38:55;17.93;;;8.23;;
10248;SDS011;5169;50.560;9.714;2024-01-07T04:41:20;17.50;;;7.93;;
10248;SDS011;5169;50.560;9.714;2024-01-07T04:43:48;15.43;;;9.10;;
10248;SDS011;5169;50.560;9.714;2024-01-07T04:46:14;15.00;;;8.53;;
10248;SDS011;5169;50.560;9.714;2024-01-07T04:48:40;14.13;;;8.03;;
10248;SDS011;5169;50.560;9.714;2024-01-07T04:51:06;15.50;;;8.20;;
10248;SDS011;5169;50.560;9.714;2024-01-07T04:53:33;14.80;;;9.20;;
10248;SDS011;5169;50.560;9.714;2024-01-07T04:55:58;20.37;;;9.40;;
10248;SDS011;5169;50.560;9.714;2024-01-07T04:58:24;14.43;;;8.83;;
10248;SDS011;5169;50.560;9.714;2024-01-07T05:00:54;17.20;;;8.77;;
10248;SDS011;5169;50.560;9.714;2024-01-07T05:03:22;15.80;;;9.43;;
10248;SDS011;5169;50.560;9.714;2024-01-07T05:05:50;15.20;;;8.93;;
10248;SDS011;5169;50.560;9.714;2024-01-07T05:08:16;13.00;;;8.70;;
10248;SDS011;5169;50.560;9.714;2024-01-07T05:10:42;13.43;;;8.90;;
10248;SDS011;5169;50.560;9.714;2024-01-07T05:13:07;13.50;;;8.50;;
10248;SDS011;5169;50.560;9.714;2024-01-07T05:15:33;12.40;;;8.60;;
10248;SDS011;5169;50.560;9.714;2024-01-07T05:18:04;12.40;;;8.60;;
10248;SDS011;5169;50.560;9.714;2024-01-07T05:20:35;11.87;;;7.97;;
10248;SDS011;5169;50.560;9.714;2024-01-07T05:23:00;11.47;;;7.93;;
10248;SDS011;5169;50.560;9.714;2024-01-07T05:25:26;11.83;;;7.90;;
10248;SDS011;5169;50.560;9.714;2024-01-07T05:27:51;9.97;;;7.20;;
10248;SDS011;5169;50.560;9.714;2024-01-07T05:30:17;10.67;;;7.13;;
10248;SDS011;5169;50.560;9.714;2024-01-07T05:32:43;10.90;;;7.20;;
10248;SDS011;5169;50.560;9.714;2024-01-07T05:35:13;9.90;;;7.03;;
10248;SDS011;5169;50.560;9.714;2024-01-07T05:37:39;9.90;;;6.93;;
10248;SDS011;5169;50.560;9.714;2024-01-07T05:40:05;7.77;;;6.07;;
10248;SDS011;5169;50.560;9.714;2024-01-07T05:42:35;11.00;;;6.67;;
10248;SDS011;5169;50.560;9.714;2024-01-07T05:45:01;9.93;;;6.57;;
10248;SDS011;5169;50.560;9.714;2024-01-07T05:47:27;8.50;;;6.93;;
10248;SDS011;5169;50.560;9.714;2024-01-07T05:49:53;8.37;;;6.30;;
10248;SDS011;5169;50.560;9.714;2024-01-07T05:52:19;7.77;;;5.57;;
10248;SDS011;5169;50.560;9.714;2024-01-07T05:54:44;7.93;;;6.30;;
10248;SDS011;5169;50.560;9.714;2024-01-07T05:57:12;8.30;;;5.97;;
10248;SDS011;5169;50.560;9.714;2024-01-07T05:59:37;7.17;;;5.77;;
10248;SDS011;5169;50.560;9.714;2024-01-07T06:02:03;7.37;;;6.13;;
10248;SDS011;5169;50.560;9.714;2024-01-07T06:04:29;8.37;;;5.93;;
10248;SDS011;5169;50.560;9.714;2024-01-07T06:07:01;6.93;;;5.33;;
10248;SDS011;5169;50.560;9.714;2024-01-07T06:09:27;6.27;;;5.33;;
10248;SDS011;5169;50.560;9.714;2024-01-07T06:11:55;6.60;;;5.03;;
10248;SDS011;5169;50.560;9.714;2024-01-07T06:14:23;5.63;;;4.47;;
10248;SDS011;5169;50.560;9.714;2024-01-07T06:16:48;6.63;;;5.10;;
10248;SDS011;5169;50.560;9.714;2024-01-07T06:19:21;6.23;;;5.00;;
10248;SDS011;5169;50.560;9.714;2024-01-07T06:21:46;6.60;;;5.07;;
10248;SDS011;5169;50.560;9.714;2024-01-07T06:24:12;5.60;;;4.73;;
10248;SDS011;5169;50.560;9.714;2024-01-07T06:26:38;6.43;;;5.00;;
10248;SDS011;5169;50.560;9.714;2024-01-07T06:29:05;7.10;;;5.13;;
10248;SDS011;5169;50.560;9.714;2024-01-07T06:31:30;6.40;;;4.83;;
10248;SDS011;5169;50.560;9.714;2024-01-07T06:33:56;6.13;;;4.50;;
10248;SDS011;5169;50.560;9.714;2024-01-07T06:36:26;5.47;;;4.43;;
10248;SDS011;5169;50.560;9.714;2024-01-07T06:38:52;5.83;;;4.17;;
10248;SDS011;5169;50.560;9.714;2024-01-07T06:41:20;6.30;;;4.60;;
10248;SDS011;5169;50.560;9.714;2024-01-07T06:43:45;6.80;;;4.93;;
10248;SDS011;5169;50.560;9.714;2024-01-07T06:46:11;6.57;;;5.07;;
10248;SDS011;5169;50.560;9.714;2024-01-07T06:48:37;8.60;;;5.03;;
10248;SDS011;5169;50.560;9.714;2024-01-07T06:51:05;6.17;;;4.80;;
10248;SDS011;5169;50.560;9.714;2024-01-07T06:53:30;6.00;;;4.93;;
10248;SDS011;5169;50.560;9.714;2024-01-07T06:55:56;7.13;;;5.40;;
10248;SDS011;5169;50.560;9.714;2024-01-07T06:58:24;6.47;;;4.87;;
10248;SDS011;5169;50.560;9.714;2024-01-07T07:00:52;8.03;;;5.70;;
10248;SDS011;5169;50.560;9.714;2024-01-07T07:03:22;7.33;;;5.73;;
10248;SDS011;5169;50.560;9.714;2024-01-07T07:05:50;7.77;;;5.80;;
10248;SDS011;5169;50.560;9.714;2024-01-07T07:08:18;6.67;;;5.10;;
10248;SDS011;5169;50.560;9.714;2024-01-07T07:10:46;7.50;;;5.37;;
10248;SDS011;5169;50.560;9.714;2024-01-07T07:13:12;7.83;;;5.43;;
10248;SDS011;5169;50.560;9.714;2024-01-07T07:15:37;7.17;;;5.10;;
10248;SDS011;5169;50.560;9.714;2024-01-07T07:18:03;7.67;;;5.80;;
10248;SDS011;5169;50.560;9.714;2024-01-07T07:20:29;7.30;;;5.50;;
10248;SDS011;5169;50.560;9.714;2024-01-07T07:22:55;9.27;;;6.20;;
10248;SDS011;5169;50.560;9.714;2024-01-07T07:25:20;8.30;;;6.17;;
10248;SDS011;5169;50.560;9.714;2024-01-07T07:27:46;7.53;;;6.13;;
10248;SDS011;5169;50.560;9.714;2024-01-07T07:30:11;8.63;;;6.47;;
10248;SDS011;5169;50.560;9.714;2024-01-07T07:32:43;8.43;;;5.63;;
10248;SDS011;5169;50.560;9.714;2024-01-07T07:35:09;7.33;;;5.77;;
10248;SDS011;5169;50.560;9.714;2024-01-07T07:37:34;7.13;;;5.83;;
10248;SDS011;5169;50.560;9.714;2024-01-07T07:40:00;7.33;;;6.10;;
10248;SDS011;5169;50.560;9.714;2024-01-07T07:42:26;9.07;;;5.93;;
10248;SDS011;5169;50.560;9.714;2024-01-07T07:44:51;6.93;;;5.87;;
10248;SDS011;5169;50.560;9.714;2024-01-07T07:47:17;8.37;;;5.80;;
10248;SDS011;5169;50.560;9.714;2024-01-07T07:49:45;6.73;;;4.63;;
10248;SDS011;5169;50.560;9.714;2024-01-07T07:52:11;6.03;;;4.37;;
10248;SDS011;5169;50.560;9.714;2024-01-07T07:54:39;6.57;;;4.53;;
10248;SDS011;5169;50.560;9.714;2024-01-07T07:57:05;7.07;;;4.63;;
10248;SDS011;5169;50.560;9.714;2024-01-07T07:59:30;6.40;;;4.03;;
10248;SDS011;5169;50.560;9.714;2024-01-07T08:01:56;5.37;;;3.83;;
10248;SDS011;5169;50.560;9.714;2024-01-07T08:04:22;6.50;;;4.80;;
10248;SDS011;5169;50.560;9.714;2024-01-07T08:06:47;5.87;;;4.33;;
10248;SDS011;5169;50.560;9.714;2024-01-07T08:09:13;7.90;;;5.57;;
10248;SDS011;5169;50.560;9.714;2024-01-07T08:11:40;7.20;;;5.43;;
10248;SDS011;5169;50.560;9.714;2024-01-07T08:14:06;7.03;;;4.80;;
10248;SDS011;5169;50.560;9.714;2024-01-07T08:16:32;7.57;;;5.10;;
10248;SDS011;5169;50.560;9.714;2024-01-07T08:18:57;7.53;;;5.13;;
10248;SDS011;5169;50.560;9.714;2024-01-07T08:21:23;7.07;;;4.80;;
10248;SDS011;5169;50.560;9.714;2024-01-07T08:23:49;7.77;;;4.70;;
10248;SDS011;5169;50.560;9.714;2024-01-07T08:26:21;7.77;;;5.23;;
10248;SDS011;5169;50.560;9.714;2024-01-07T08:28:48;7.07;;;4.80;;
10248;SDS011;5169;50.560;9.714;2024-01-07T08:31:13;7.00;;;5.00;;
10248;SDS011;5169;50.560;9.714;2024-01-07T08:33:39;6.57;;;4.60;;
10248;SDS011;5169;50.560;9.714;2024-01-07T08:36:05;6.70;;;5.13;;
10248;SDS011;5169;50.560;9.714;2024-01-07T08:38:33;8.40;;;5.73;;
10248;SDS011;5169;50.560;9.714;2024-01-07T08:40:59;6.20;;;5.27;;
10248;SDS011;5169;50.560;9.714;2024-01-07T08:43:27;6.33;;;4.93;;
10248;SDS011;5169;50.560;9.714;2024-01-07T08:45:54;7.60;;;5.03;;
10248;SDS011;5169;50.560;9.714;2024-01-07T08:48:20;7.23;;;5.40;;
10248;SDS011;5169;50.560;9.714;2024-01-07T08:50:48;6.50;;;4.57;;
10248;SDS011;5169;50.560;9.714;2024-01-07T08:53:15;6.47;;;4.90;;
10248;SDS011;5169;50.560;9.714;2024-01-07T08:55:43;7.70;;;4.50;;
10248;SDS011;5169;50.560;9.714;2024-01-07T08:58:11;6.60;;;5.23;;
10248;SDS011;5169;50.560;9.714;2024-01-07T09:00:37;6.77;;;4.87;;
10248;SDS011;5169;50.560;9.714;2024-01-07T09:03:02;6.90;;;4.63;;
10248;SDS011;5169;50.560;9.714;2024-01-07T09:05:28;6.47;;;4.53;;
10248;SDS011;5169;50.560;9.714;2024-01-07T09:07:58;7.73;;;4.70;;
10248;SDS011;5169;50.560;9.714;2024-01-07T09:10:29;7.37;;;4.83;;
10248;SDS011;5169;50.560;9.714;2024-01-07T09:12:55;6.33;;;4.63;;
10248;SDS011;5169;50.560;9.714;2024-01-07T09:15:22;7.50;;;4.47;;
10248;SDS011;5169;50.560;9.714;2024-01-07T09:17:50;7.37;;;4.93;;
10248;SDS011;5169;50.560;9.714;2024-01-07T09:20:16;6.37;;;4.43;;
10248;SDS011;5169;50.560;9.714;2024-01-07T09:22:44;6.77;;;4.53;;
10248;SDS011;5169;50.560;9.714;2024-01-07T09:25:10;6.63;;;4.30;;
10248;SDS011;5169;50.560;9.714;2024-01-07T09:27:37;6.50;;;4.30;;
10248;SDS011;5169;50.560;9.714;2024-01-07T09:30:03;6.50;;;4.63;;
10248;SDS011;5169;50.560;9.714;2024-01-07T09:32:29;6.00;;;4.50;;
10248;SDS011;5169;50.560;9.714;2024-01-07T09:34:55;5.80;;;4.40;;
10248;SDS011;5169;50.560;9.714;2024-01-07T09:37:22;5.50;;;3.97;;
10248;SDS011;5169;50.560;9.714;2024-01-07T09:39:48;7.27;;;4.97;;
10248;SDS011;5169;50.560;9.714;2024-01-07T09:42:19;6.03;;;4.60;;
10248;SDS011;5169;50.560;9.714;2024-01-07T09:44:45;6.70;;;4.90;;
10248;SDS011;5169;50.560;9.714;2024-01-07T09:47:17;7.07;;;4.43;;
10248;SDS011;5169;50.560;9.714;2024-01-07T09:49:48;5.10;;;4.47;;
10248;SDS011;5169;50.560;9.714;2024-01-07T09:52:14;6.20;;;4.17;;
10248;SDS011;5169;50.560;9.714;2024-01-07T09:54:40;7.30;;;4.67;;
10248;SDS011;5169;50.560;9.714;2024-01-07T09:57:07;6.97;;;4.83;;
10248;SDS011;5169;50.560;9.714;2024-01-07T09:59:35;4.30;;;3.13;;
10248;SDS011;5169;50.560;9.714;2024-01-07T10:02:01;6.93;;;5.00;;
10248;SDS011;5169;50.560;9.714;2024-01-07T10:04:27;6.50;;;5.10;;
10248;SDS011;5169;50.560;9.714;2024-01-07T10:06:56;9.40;;;5.77;;
10248;SDS011;5169;50.560;9.714;2024-01-07T10:09:22;4.57;;;3.27;;
10248;SDS011;5169;50.560;9.714;2024-01-07T10:11:52;2.83;;;2.37;;
10248;SDS011;5169;50.560;9.714;2024-01-07T10:14:19;7.00;;;3.83;;
10248;SDS011;5169;50.560;9.714;2024-01-07T10:16:49;5.73;;;3.67;;
10248;SDS011;5169;50.560;9.714;2024-01-07T10:19:22;5.80;;;4.10;;
10248;SDS011;5169;50.560;9.714;2024-01-07T10:21:59;6.57;;;3.67;;
10248;SDS011;5169;50.560;9.714;2024-01-07T10:24:31;9.23;;;4.97;;
10248;SDS011;5169;50.560;9.714;2024-01-07T10:27:09;7.47;;;4.30;;
10248;SDS011;5169;50.560;9.714;2024-01-07T10:29:35;9.37;;;4.77;;
10248;SDS011;5169;50.560;9.714;2024-01-07T10:32:01;7.47;;;4.83;;
10248;SDS011;5169;50.560;9.714;2024-01-07T10:34:33;6.57;;;4.03;;
10248;SDS011;5169;50.560;9.714;2024-01-07T10:37:03;4.77;;;2.87;;
10248;SDS011;5169;50.560;9.714;2024-01-07T10:39:33;12.47;;;4.27;;
10248;SDS011;5169;50.560;9.714;2024-01-07T10:41:59;5.87;;;4.27;;
10248;SDS011;5169;50.560;9.714;2024-01-07T10:44:29;7.33;;;4.03;;
10248;SDS011;5169;50.560;9.714;2024-01-07T10:46:59;5.03;;;3.10;;
10248;SDS011;5169;50.560;9.714;2024-01-07T10:49:26;10.83;;;5.23;;
10248;SDS011;5169;50.560;9.714;2024-01-07T10:54:28;4.77;;;3.30;;
10248;SDS011;5169;50.560;9.714;2024-01-07T10:56:58;6.50;;;4.03;;
10248;SDS011;5169;50.560;9.714;2024-01-07T10:59:29;7.93;;;4.60;;
10248;SDS011;5169;50.560;9.714;2024-01-07T11:01:57;4.37;;;3.07;;
10248;SDS011;5169;50.560;9.714;2024-01-07T11:04:41;4.03;;;3.10;;
10248;SDS011;5169;50.560;9.714;2024-01-07T11:10:48;5.83;;;3.93;;
10248;SDS011;5169;50.560;9.714;2024-01-07T11:13:37;7.37;;;4.07;;
10248;SDS011;5169;50.560;9.714;2024-01-07T11:16:04;3.83;;;3.07;;
10248;SDS011;5169;50.560;9.714;2024-01-07T11:18:31;6.10;;;3.80;;
10248;SDS011;5169;50.560;9.714;2024-01-07T11:20:59;4.97;;;3.20;;
10248;SDS011;5169;50.560;9.714;2024-01-07T11:23:35;2.67;;;1.70;;
10248;SDS011;5169;50.560;9.714;2024-01-07T11:26:05;6.47;;;3.27;;
10248;SDS011;5169;50.560;9.714;2024-01-07T11:31:16;5.27;;;3.73;;
10248;SDS011;5169;50.560;9.714;2024-01-07T11:33:45;5.20;;;3.70;;
10248;SDS011;5169;50.560;9.714;2024-01-07T11:36:17;5.13;;;3.00;;
10248;SDS011;5169;50.560;9.714;2024-01-07T11:41:13;7.23;;;4.10;;
10248;SDS011;5169;50.560;9.714;2024-01-07T11:44:17;4.50;;;3.10;;
10248;SDS011;5169;50.560;9.714;2024-01-07T11:46:37;7.07;;;3.53;;
10248;SDS011;5169;50.560;9.714;2024-01-07T11:49:03;4.37;;;3.07;;
10248;SDS011;5169;50.560;9.714;2024-01-07T11:51:29;4.07;;;3.07;;
10248;SDS011;5169;50.560;9.714;2024-01-07T11:53:55;5.37;;;3.23;;
10248;SDS011;5169;50.560;9.714;2024-01-07T11:56:23;3.73;;;2.83;;
10248;SDS011;5169;50.560;9.714;2024-01-07T11:58:49;2.47;;;2.17;;
10248;SDS011;5169;50.560;9.714;2024-01-07T12:01:15;5.13;;;3.13;;
10248;SDS011;5169;50.560;9.714;2024-01-07T12:03:43;3.03;;;2.37;;
10248;SDS011;5169;50.560;9.714;2024-01-07T12:06:12;4.33;;;3.33;;
10248;SDS011;5169;50.560;9.714;2024-01-07T12:08:41;3.70;;;3.20;;
10248;SDS011;5169;50.560;9.714;2024-01-07T12:11:08;3.40;;;2.57;;
10248;SDS011;5169;50.560;9.714;2024-01-07T12:13:39;2.40;;;1.90;;
10248;SDS011;5169;50.560;9.714;2024-01-07T12:16:06;2.20;;;1.93;;
10248;SDS011;5169;50.560;9.714;2024-01-07T12:18:33;6.33;;;2.83;;
10248;SDS011;5169;50.560;9.714;2024-01-07T12:21:01;3.57;;;2.53;;
10248;SDS011;5169;50.560;9.714;2024-01-07T12:23:26;1.37;;;1.27;;
10248;SDS011;5169;50.560;9.714;2024-01-07T12:25:53;2.53;;;1.87;;
10248;SDS011;5169;50.560;9.714;2024-01-07T12:28:21;1.87;;;1.30;;
10248;SDS011;5169;50.560;9.714;2024-01-07T12:30:47;2.70;;;2.40;;
10248;SDS011;5169;50.560;9.714;2024-01-07T12:33:18;2.20;;;1.70;;
10248;SDS011;5169;50.560;9.714;2024-01-07T12:35:47;2.67;;;1.93;;
10248;SDS011;5169;50.560;9.714;2024-01-07T12:38:15;3.07;;;1.93;;
10248;SDS011;5169;50.560;9.714;2024-01-07T12:40:47;4.47;;;2.00;;
10248;SDS011;5169;50.560;9.714;2024-01-07T12:43:13;3.27;;;2.20;;
10248;SDS011;5169;50.560;9.714;2024-01-07T12:45:38;2.27;;;2.00;;
10248;SDS011;5169;50.560;9.714;2024-01-07T12:48:04;2.60;;;1.97;;
10248;SDS011;5169;50.560;9.714;2024-01-07T12:50:32;2.03;;;1.70;;
10248;SDS011;5169;50.560;9.714;2024-01-07T12:52:58;1.43;;;1.17;;
10248;SDS011;5169;50.560;9.714;2024-01-07T12:55:24;2.53;;;1.50;;
10248;SDS011;5169;50.560;9.714;2024-01-07T12:57:50;2.70;;;2.13;;
10248;SDS011;5169;50.560;9.714;2024-01-07T13:00:16;1.67;;;1.50;;
10248;SDS011;5169;50.560;9.714;2024-01-07T13:02:48;2.13;;;1.70;;
10248;SDS011;5169;50.560;9.714;2024-01-07T13:05:14;2.47;;;1.30;;
10248;SDS011;5169;50.560;9.714;2024-01-07T13:07:40;1.20;;;1.10;;
10248;SDS011;5169;50.560;9.714;2024-01-07T13:10:05;3.40;;;0.83;;
10248;SDS011;5169;50.560;9.714;2024-01-07T13:12:34;1.23;;;0.83;;
10248;SDS011;5169;50.560;9.714;2024-01-07T13:15:02;2.30;;;1.57;;
10248;SDS011;5169;50.560;9.714;2024-01-07T13:17:29;3.47;;;1.83;;
10248;SDS011;5169;50.560;9.714;2024-01-07T13:19:58;2.67;;;1.60;;
10248;SDS011;5169;50.560;9.714;2024-01-07T13:22:24;2.27;;;1.90;;
10248;SDS011;5169;50.560;9.714;2024-01-07T13:24:52;2.83;;;2.03;;
10248;SDS011;5169;50.560;9.714;2024-01-07T13:27:19;2.87;;;1.60;;
10248;SDS011;5169;50.560;9.714;2024-01-07T13:29:47;2.97;;;1.90;;
10248;SDS011;5169;50.560;9.714;2024-01-07T13:32:15;2.80;;;2.07;;
10248;SDS011;5169;50.560;9.714;2024-01-07T13:34:43;2.93;;;1.30;;
10248;SDS011;5169;50.560;9.714;2024-01-07T13:37:11;3.13;;;1.93;;
10248;SDS011;5169;50.560;9.714;2024-01-07T13:39:37;2.23;;;1.50;;
10248;SDS011;5169;50.560;9.714;2024-01-07T13:42:03;3.40;;;2.10;;
10248;SDS011;5169;50.560;9.714;2024-01-07T13:44:31;2.87;;;2.17;;
10248;SDS011;5169;50.560;9.714;2024-01-07T13:46:59;2.57;;;1.90;;
10248;SDS011;5169;50.560;9.714;2024-01-07T13:49:26;1.93;;;1.60;;
10248;SDS011;5169;50.560;9.714;2024-01-07T13:51:52;2.10;;;1.77;;
10248;SDS011;5169;50.560;9.714;2024-01-07T13:54:18;1.80;;;1.30;;
10248;SDS011;5169;50.560;9.714;2024-01-07T13:56:45;1.47;;;1.10;;
10248;SDS011;5169;50.560;9.714;2024-01-07T13:59:10;1.57;;;1.47;;
10248;SDS011;5169;50.560;9.714;2024-01-07T14:01:36;1.97;;;1.60;;
10248;SDS011;5169;50.560;9.714;2024-01-07T14:04:03;2.43;;;1.80;;
10248;SDS011;5169;50.560;9.714;2024-01-07T14:06:31;3.03;;;1.83;;
10248;SDS011;5169;50.560;9.714;2024-01-07T14:08:57;1.70;;;1.60;;
10248;SDS011;5169;50.560;9.714;2024-01-07T14:11:28;1.73;;;1.20;;
10248;SDS011;5169;50.560;9.714;2024-01-07T14:13:53;2.57;;;1.80;;
10248;SDS011;5169;50.560;9.714;2024-01-07T14:16:22;2.47;;;2.03;;
10248;SDS011;5169;50.560;9.714;2024-01-07T14:18:49;1.60;;;1.40;;
10248;SDS011;5169;50.560;9.714;2024-01-07T14:21:15;1.60;;;1.20;;
10248;SDS011;5169;50.560;9.714;2024-01-07T14:23:40;2.13;;;1.50;;
10248;SDS011;5169;50.560;9.714;2024-01-07T14:26:08;1.50;;;1.30;;
10248;SDS011;5169;50.560;9.714;2024-01-07T14:28:36;4.33;;;2.40;;
10248;SDS011;5169;50.560;9.714;2024-01-07T14:31:05;2.30;;;1.53;;
10248;SDS011;5169;50.560;9.714;2024-01-07T14:33:30;1.33;;;1.23;;
10248;SDS011;5169;50.560;9.714;2024-01-07T14:35:58;1.70;;;0.90;;
10248;SDS011;5169;50.560;9.714;2024-01-07T14:38:24;1.80;;;1.40;;
10248;SDS011;5169;50.560;9.714;2024-01-07T14:40:52;0.70;;;0.70;;
10248;SDS011;5169;50.560;9.714;2024-01-07T14:43:18;1.50;;;1.40;;
10248;SDS011;5169;50.560;9.714;2024-01-07T14:45:44;1.40;;;1.07;;
10248;SDS011;5169;50.560;9.714;2024-01-07T14:48:09;1.30;;;1.20;;
10248;SDS011;5169;50.560;9.714;2024-01-07T14:50:39;0.90;;;0.80;;
10248;SDS011;5169;50.560;9.714;2024-01-07T14:53:04;1.30;;;0.93;;
10248;SDS011;5169;50.560;9.714;2024-01-07T14:55:30;1.27;;;1.03;;
10248;SDS011;5169;50.560;9.714;2024-01-07T14:57:55;2.10;;;1.27;;
10248;SDS011;5169;50.560;9.714;2024-01-07T15:00:23;2.43;;;1.37;;
10248;SDS011;5169;50.560;9.714;2024-01-07T15:02:49;1.80;;;1.30;;